createdAt,value
2022-11-03T00:01:45.882Z,9.70
2022-11-03T00:04:16.875Z,9.70
2022-11-03T00:06:44.441Z,9.80
2022-11-03T00:09:13.289Z,9.90
2022-11-03T00:11:40.707Z,9.90
2022-11-03T00:14:09.539Z,9.90
2022-11-03T00:16:37.572Z,9.80
2022-11-03T00:19:05.141Z,9.90
2022-11-03T00:21:31.891Z,9.80
2022-11-03T00:23:58.588Z,9.80
2022-11-03T00:26:26.438Z,9.80
2022-11-03T00:28:54.946Z,9.90
2022-11-03T00:31:23.615Z,9.90
2022-11-03T00:33:50.706Z,9.90
2022-11-03T00:36:28.145Z,9.90
2022-11-03T00:38:55.380Z,9.80
2022-11-03T00:41:22.405Z,9.80
2022-11-03T00:43:50.034Z,9.70
2022-11-03T00:46:16.767Z,9.70
2022-11-03T00:48:44.176Z,9.80
2022-11-03T00:51:35.990Z,9.60
2022-11-03T00:54:03.938Z,9.70
2022-11-03T00:56:32.421Z,9.60
2022-11-03T00:59:00.113Z,9.70
2022-11-03T01:01:29.001Z,9.70
2022-11-03T01:04:15.363Z,9.60
2022-11-03T01:06:52.503Z,9.70
2022-11-03T01:09:36.048Z,9.70
2022-11-03T01:12:10.310Z,9.80
2022-11-03T01:14:42.194Z,9.80
2022-11-03T01:17:11.321Z,9.70
2022-11-03T01:19:38.639Z,9.70
2022-11-03T01:22:09.542Z,9.70
2022-11-03T01:24:38.236Z,9.70
2022-11-03T01:27:04.894Z,9.80
2022-11-03T01:29:32.431Z,9.80
2022-11-03T01:31:59.902Z,9.80
2022-11-03T01:34:27.009Z,9.80
2022-11-03T01:36:54.500Z,9.90
2022-11-03T01:39:21.550Z,9.80
2022-11-03T01:41:50.347Z,9.80
2022-11-03T01:44:16.968Z,9.80
2022-11-03T01:46:56.264Z,9.80
2022-11-03T01:49:33.188Z,9.70
2022-11-03T01:52:03.582Z,9.80
2022-11-03T01:54:30.819Z,9.70
2022-11-03T01:56:57.506Z,9.70
2022-11-03T01:59:24.410Z,9.70
2022-11-03T02:01:51.668Z,9.70
2022-11-03T02:04:25.330Z,9.70
2022-11-03T02:06:59.949Z,9.60
2022-11-03T02:09:27.276Z,9.60
2022-11-03T02:12:06.557Z,9.70
2022-11-03T02:14:34.360Z,9.70
2022-11-03T02:17:03.957Z,9.80
2022-11-03T02:19:49.829Z,9.80
2022-11-03T02:22:57.686Z,9.80
2022-11-03T02:25:59.394Z,9.80
2022-11-03T02:28:28.419Z,9.60
2022-11-03T02:31:19.181Z,9.70
2022-11-03T02:34:07.140Z,9.70
2022-11-03T02:36:39.361Z,9.70
2022-11-03T02:39:20.756Z,9.60
2022-11-03T02:41:47.888Z,9.60
2022-11-03T02:44:16.295Z,9.60
2022-11-03T02:46:44.384Z,9.60
2022-11-03T02:49:11.834Z,9.70
2022-11-03T02:51:38.987Z,9.60
2022-11-03T02:54:20.813Z,9.60
2022-11-03T02:56:50.724Z,9.70
2022-11-03T02:59:20.495Z,9.60
2022-11-03T03:01:54.956Z,9.70
2022-11-03T03:04:45.072Z,9.70
2022-11-03T03:07:22.337Z,9.70
2022-11-03T03:10:05.670Z,9.60
2022-11-03T03:12:32.869Z,9.60
2022-11-03T03:14:59.985Z,9.70
2022-11-03T03:17:42.019Z,9.60
2022-11-03T03:20:22.891Z,9.70
2022-11-03T03:22:54.114Z,9.70
2022-11-03T03:25:32.834Z,9.70
2022-11-03T03:28:03.159Z,9.70
2022-11-03T03:30:30.162Z,9.60
2022-11-03T03:32:57.246Z,9.60
2022-11-03T03:35:24.840Z,9.50
2022-11-03T03:37:53.955Z,9.50
2022-11-03T03:40:43.793Z,9.50
2022-11-03T03:43:11.433Z,9.60
2022-11-03T03:45:38.825Z,9.60
2022-11-03T03:48:06.488Z,9.60
2022-11-03T03:50:35.970Z,9.50
2022-11-03T03:53:04.504Z,9.50
2022-11-03T03:55:36.218Z,9.60
2022-11-03T03:58:04.466Z,9.50
2022-11-03T04:00:31.861Z,9.50
2022-11-03T04:02:59.318Z,9.50
2022-11-03T04:05:26.849Z,9.50
2022-11-03T04:07:53.937Z,9.50
2022-11-03T04:10:21.849Z,9.40
2022-11-03T04:13:07.822Z,9.50
2022-11-03T04:15:53.072Z,9.40
2022-11-03T04:18:39.278Z,9.50
2022-11-03T04:21:25.868Z,9.50
2022-11-03T04:23:54.605Z,9.40
2022-11-03T04:26:24.287Z,9.30
2022-11-03T04:28:52.274Z,9.30
2022-11-03T04:31:19.581Z,9.30
2022-11-03T04:33:46.884Z,9.30
2022-11-03T04:36:19.912Z,9.30
2022-11-03T04:38:47.143Z,9.30
2022-11-03T04:41:22.162Z,9.40
2022-11-03T04:43:49.530Z,9.50
2022-11-03T04:46:17.442Z,9.60
2022-11-03T04:48:44.596Z,9.60
2022-11-03T04:51:15.337Z,9.60
2022-11-03T04:53:49.554Z,9.50
2022-11-03T04:56:19.832Z,9.50
2022-11-03T04:58:48.119Z,9.50
2022-11-03T05:01:22.637Z,9.50
2022-11-03T05:03:53.587Z,9.40
2022-11-03T05:06:22.299Z,9.50
2022-11-03T05:08:52.497Z,9.60
2022-11-03T05:11:39.288Z,9.60
2022-11-03T05:14:15.945Z,9.60
2022-11-03T05:16:43.522Z,9.60
2022-11-03T05:19:16.232Z,9.50
2022-11-03T05:21:43.292Z,9.50
2022-11-03T05:24:12.739Z,9.50
2022-11-03T05:26:39.833Z,9.50
2022-11-03T05:29:24.285Z,9.40
2022-11-03T05:31:51.930Z,9.40
2022-11-03T05:34:30.986Z,9.40
2022-11-03T05:37:26.925Z,9.40
2022-11-03T05:39:59.113Z,9.30
2022-11-03T05:42:28.885Z,9.30
2022-11-03T05:44:55.923Z,9.30
2022-11-03T05:47:37.292Z,9.30
2022-11-03T05:50:21.177Z,9.30
2022-11-03T05:52:48.749Z,9.30
2022-11-03T05:55:32.139Z,9.20
2022-11-03T05:58:11.601Z,9.30
2022-11-03T06:00:45.447Z,9.30
2022-11-03T06:03:16.623Z,9.30
2022-11-03T06:05:43.635Z,9.20
2022-11-03T06:08:17.859Z,9.30
2022-11-03T06:10:51.170Z,9.30
2022-11-03T06:13:25.252Z,9.30
2022-11-03T06:15:56.755Z,9.30
2022-11-03T06:18:25.438Z,9.30
2022-11-03T06:21:02.422Z,9.30
2022-11-03T06:23:29.852Z,9.30
2022-11-03T06:25:56.944Z,9.30
2022-11-03T06:28:32.350Z,9.40
2022-11-03T06:30:59.390Z,9.40
2022-11-03T06:33:29.654Z,9.40
2022-11-03T06:36:01.035Z,9.40
2022-11-03T06:38:30.030Z,9.30
2022-11-03T06:40:56.857Z,9.30
2022-11-03T06:43:28.627Z,9.30
2022-11-03T06:45:59.269Z,9.40
2022-11-03T06:48:28.330Z,9.40
2022-11-03T06:50:55.573Z,9.40
2022-11-03T06:53:27.660Z,9.30
2022-11-03T06:55:54.885Z,9.30
2022-11-03T06:58:59.159Z,9.30
2022-11-03T07:01:29.743Z,9.30
2022-11-03T07:04:01.498Z,9.30
2022-11-03T07:06:37.535Z,9.30
2022-11-03T07:09:05.954Z,9.40
2022-11-03T07:11:36.275Z,9.40
2022-11-03T07:14:04.870Z,9.50
2022-11-03T07:16:39.728Z,9.50
2022-11-03T07:19:10.482Z,9.50
2022-11-03T07:21:44.555Z,9.50
2022-11-03T07:24:14.144Z,9.50
2022-11-03T07:26:41.821Z,9.40
2022-11-03T07:29:21.682Z,9.40
2022-11-03T07:31:49.469Z,9.40
2022-11-03T07:34:20.749Z,9.40
2022-11-03T07:36:55.745Z,9.40
2022-11-03T07:39:24.014Z,9.40
2022-11-03T07:41:50.986Z,9.40
2022-11-03T07:44:22.544Z,9.50
2022-11-03T07:46:50.548Z,9.50
2022-11-03T07:49:25.893Z,9.50
2022-11-03T07:51:54.322Z,9.40
2022-11-03T07:54:33.022Z,9.40
2022-11-03T07:57:23.702Z,9.50
2022-11-03T08:00:31.804Z,9.60
2022-11-03T08:02:59.850Z,9.70
2022-11-03T08:05:27.366Z,9.80
2022-11-03T08:07:54.359Z,9.80
2022-11-03T08:10:21.845Z,9.90
2022-11-03T08:12:48.665Z,9.90
2022-11-03T08:15:16.510Z,9.80
2022-11-03T08:17:43.254Z,9.90
2022-11-03T08:20:10.445Z,10.00
2022-11-03T08:22:37.232Z,10.00
2022-11-03T08:25:04.632Z,9.90
2022-11-03T08:27:31.485Z,9.90
2022-11-03T08:29:58.222Z,9.90
2022-11-03T08:32:25.065Z,9.90
2022-11-03T08:34:52.212Z,9.80
2022-11-03T08:37:18.951Z,9.90
2022-11-03T08:39:45.759Z,9.90
2022-11-03T08:42:12.688Z,9.80
2022-11-03T08:44:41.219Z,9.80
2022-11-03T08:47:08.358Z,9.80
2022-11-03T08:49:35.160Z,9.80
2022-11-03T08:52:03.430Z,9.80
2022-11-03T08:54:31.208Z,9.70
2022-11-03T08:56:59.334Z,9.70
2022-11-03T08:59:29.025Z,9.80
2022-11-03T09:01:57.753Z,9.90
2022-11-03T09:04:24.969Z,9.80
2022-11-03T09:06:51.763Z,9.80
2022-11-03T09:12:05.721Z,9.90
2022-11-03T09:14:32.506Z,10.00
2022-11-03T09:16:59.285Z,10.10
2022-11-03T09:19:26.102Z,10.10
2022-11-03T09:21:53.144Z,10.00
2022-11-03T09:24:19.904Z,10.10
2022-11-03T09:26:46.649Z,10.10
2022-11-03T09:29:13.799Z,10.20
2022-11-03T09:31:40.637Z,10.10
2022-11-03T09:34:08.286Z,10.10
2022-11-03T09:36:35.163Z,10.00
2022-11-03T09:39:01.918Z,10.10
2022-11-03T09:41:53.952Z,10.20
2022-11-03T09:44:17.852Z,10.10
2022-11-03T09:46:44.603Z,10.10
2022-11-03T09:49:14.236Z,10.20
2022-11-03T09:51:41.117Z,10.20
2022-11-03T09:54:11.440Z,10.20
2022-11-03T09:56:39.645Z,10.30
2022-11-03T09:59:24.626Z,10.20
2022-11-03T10:01:53.610Z,10.20
2022-11-03T10:04:31.393Z,10.10
2022-11-03T10:06:58.774Z,10.20
2022-11-03T10:09:26.178Z,10.20
2022-11-03T10:11:54.374Z,10.30
2022-11-03T10:14:21.563Z,10.20
2022-11-03T10:17:00.958Z,10.30
2022-11-03T10:19:27.935Z,10.30
2022-11-03T10:21:55.020Z,10.20
2022-11-03T10:24:22.963Z,10.20
2022-11-03T10:26:50.942Z,10.30
2022-11-03T10:29:24.761Z,10.30
2022-11-03T10:31:53.453Z,10.30
2022-11-03T10:34:42.122Z,10.40
2022-11-03T10:37:25.581Z,10.40
2022-11-03T10:39:56.727Z,10.50
2022-11-03T10:42:28.182Z,10.50
2022-11-03T10:45:20.047Z,10.50
2022-11-03T10:48:02.891Z,10.60
2022-11-03T10:50:29.981Z,10.60
2022-11-03T10:52:58.292Z,10.70
2022-11-03T10:55:31.124Z,10.70
2022-11-03T10:57:58.788Z,10.70
2022-11-03T11:00:26.044Z,10.80
2022-11-03T11:02:59.457Z,10.90
2022-11-03T11:05:26.666Z,10.90
2022-11-03T11:08:00.073Z,11.00
2022-11-03T11:10:28.393Z,11.10
2022-11-03T11:13:23.210Z,11.10
2022-11-03T11:16:00.084Z,11.30
2022-11-03T11:18:30.729Z,11.30
2022-11-03T11:21:01.084Z,11.40
2022-11-03T11:23:28.292Z,11.50
2022-11-03T11:26:10.637Z,11.60
2022-11-03T11:28:41.943Z,11.60
2022-11-03T11:31:35.618Z,11.70
2022-11-03T11:34:17.320Z,11.70
2022-11-03T11:36:54.615Z,11.70
2022-11-03T11:39:25.595Z,11.70
2022-11-03T11:42:14.156Z,11.70
2022-11-03T11:44:54.002Z,11.80
2022-11-03T11:47:43.826Z,11.80
2022-11-03T11:50:31.749Z,11.90
2022-11-03T11:52:58.582Z,11.90
2022-11-03T11:55:48.388Z,11.90
2022-11-03T11:58:43.416Z,11.90
2022-11-03T12:01:29.396Z,11.90
2022-11-03T12:03:59.715Z,11.90
2022-11-03T12:06:33.605Z,11.90
2022-11-03T12:09:17.149Z,11.90
2022-11-03T12:11:55.391Z,11.90
2022-11-03T12:14:28.974Z,11.90
2022-11-03T12:17:20.103Z,11.90
2022-11-03T12:19:50.943Z,11.90
2022-11-03T12:22:24.123Z,11.90
2022-11-03T12:25:15.352Z,11.90
2022-11-03T12:27:43.410Z,11.90
2022-11-03T12:30:19.064Z,11.90
2022-11-03T12:32:46.154Z,11.80
2022-11-03T12:35:13.750Z,11.80
2022-11-03T12:37:43.516Z,11.80
2022-11-03T12:40:12.663Z,11.80
2022-11-03T12:42:39.842Z,11.80
2022-11-03T12:45:08.736Z,11.80
2022-11-03T12:47:35.599Z,11.80
2022-11-03T12:50:04.570Z,11.70
2022-11-03T12:52:31.811Z,11.70
2022-11-03T12:54:58.566Z,11.70
2022-11-03T12:57:25.327Z,11.60
2022-11-03T12:59:52.589Z,11.50
2022-11-03T13:02:19.582Z,11.50
2022-11-03T13:04:46.560Z,11.40
2022-11-03T13:07:13.295Z,11.40
2022-11-03T13:09:40.111Z,11.40
2022-11-03T13:12:25.419Z,11.30
2022-11-03T13:14:52.173Z,11.30
2022-11-03T13:17:19.199Z,11.30
2022-11-03T13:19:46.145Z,11.30
2022-11-03T13:22:13.735Z,11.30
2022-11-03T13:24:42.261Z,11.30
2022-11-03T13:27:09.347Z,11.30
2022-11-03T13:29:36.440Z,11.20
2022-11-03T13:32:04.087Z,11.20
2022-11-03T13:34:31.353Z,11.20
2022-11-03T13:36:58.829Z,11.20
2022-11-03T13:39:25.760Z,11.20
2022-11-03T13:41:52.592Z,11.20
2022-11-03T13:44:19.683Z,11.20
2022-11-03T13:46:46.629Z,11.20
2022-11-03T13:52:00.339Z,11.20
2022-11-03T14:00:05.148Z,11.10
2022-11-03T14:05:26.852Z,11.10
2022-11-03T14:07:53.591Z,11.10
2022-11-03T14:10:20.404Z,11.10
2022-11-03T14:12:47.274Z,11.10
2022-11-03T14:15:14.622Z,11.10
2022-11-03T14:17:41.876Z,11.10
2022-11-03T14:20:11.436Z,11.10
2022-11-03T14:22:39.509Z,11.10
2022-11-03T14:25:07.960Z,11.10
2022-11-03T14:27:35.277Z,11.10
2022-11-03T14:30:02.111Z,11.10
2022-11-03T14:32:28.982Z,11.10
2022-11-03T14:34:56.001Z,11.10
2022-11-03T14:37:25.606Z,11.10
2022-11-03T14:39:52.548Z,11.10
2022-11-03T14:42:19.287Z,11.10
2022-11-03T14:44:46.863Z,11.10
2022-11-03T14:47:22.146Z,11.10
2022-11-03T14:50:03.861Z,11.10
2022-11-03T14:52:31.789Z,11.00
2022-11-03T14:54:58.536Z,11.00
2022-11-03T14:57:25.276Z,11.00
2022-11-03T14:59:53.630Z,11.00
2022-11-03T15:05:28.706Z,11.10
2022-11-03T15:11:05.481Z,11.00
2022-11-03T15:13:39.518Z,11.10
2022-11-03T15:16:14.588Z,11.10
2022-11-03T15:18:44.258Z,11.00
2022-11-03T15:21:11.599Z,11.00
2022-11-03T15:26:28.758Z,11.00
2022-11-03T15:29:00.695Z,11.10
2022-11-03T15:31:27.483Z,11.10
2022-11-03T15:33:54.360Z,11.00
2022-11-03T15:36:25.070Z,11.00
2022-11-03T15:38:54.204Z,11.00
2022-11-03T15:41:22.181Z,11.00
2022-11-03T15:43:50.430Z,11.00
2022-11-03T15:46:17.966Z,11.00
2022-11-03T15:48:46.262Z,11.00
2022-11-03T15:51:13.323Z,11.00
2022-11-03T15:53:40.587Z,11.00
2022-11-03T15:56:07.784Z,11.00
2022-11-03T15:58:34.657Z,10.90
2022-11-03T16:01:05.774Z,10.90
2022-11-03T16:03:33.268Z,10.90
2022-11-03T16:06:00.335Z,10.90
2022-11-03T16:08:27.403Z,10.90
2022-11-03T16:10:58.038Z,10.90
2022-11-03T16:13:25.848Z,10.90
2022-11-03T16:15:54.552Z,10.90
2022-11-03T16:18:21.882Z,11.00
2022-11-03T16:20:48.927Z,11.00
2022-11-03T16:23:16.686Z,11.00
2022-11-03T16:25:44.202Z,11.00
2022-11-03T16:28:11.683Z,11.00
2022-11-03T16:30:39.150Z,11.00
2022-11-03T16:33:07.488Z,11.00
2022-11-03T16:35:35.053Z,11.00
2022-11-03T16:38:01.833Z,11.00
2022-11-03T16:40:28.801Z,11.00
2022-11-03T16:42:56.263Z,11.00
2022-11-03T16:45:25.811Z,11.00
2022-11-03T16:47:52.932Z,11.00
2022-11-03T16:50:19.717Z,10.90
2022-11-03T16:52:47.139Z,10.90
2022-11-03T16:55:15.301Z,10.90
2022-11-03T16:57:42.305Z,10.90
2022-11-03T17:00:15.147Z,10.90
2022-11-03T17:02:42.334Z,10.90
2022-11-03T17:05:09.320Z,10.90
2022-11-03T17:07:36.669Z,10.90
2022-11-03T17:10:06.086Z,10.90
2022-11-03T17:12:34.053Z,10.90
2022-11-03T17:15:01.329Z,10.90
2022-11-03T17:17:29.215Z,10.90
2022-11-03T17:20:05.935Z,10.90
2022-11-03T17:22:51.375Z,10.90
2022-11-03T17:25:19.807Z,10.90
2022-11-03T17:27:54.378Z,11.00
2022-11-03T17:30:25.986Z,10.90
2022-11-03T17:32:54.757Z,10.90
2022-11-03T17:35:52.167Z,11.00
2022-11-03T17:38:26.976Z,10.90
2022-11-03T17:44:00.729Z,11.00
2022-11-03T17:46:34.479Z,11.00
2022-11-03T17:53:18.352Z,11.00
2022-11-03T18:05:49.852Z,11.00
2022-11-03T18:08:18.217Z,11.00
2022-11-03T18:11:04.751Z,11.00
2022-11-03T18:36:22.162Z,10.90
2022-11-03T18:38:49.218Z,10.90
2022-11-03T18:41:39.813Z,10.80
2022-11-03T18:44:10.910Z,10.80
2022-11-03T18:46:38.067Z,10.80
2022-11-03T18:49:06.356Z,10.80
2022-11-03T18:51:34.140Z,10.80
2022-11-03T18:54:00.908Z,10.80
2022-11-03T18:56:30.741Z,10.80
2022-11-03T18:59:00.080Z,10.80
2022-11-03T19:01:27.817Z,10.70
2022-11-03T19:04:01.855Z,10.70
2022-11-03T19:06:33.818Z,10.70
2022-11-03T19:09:02.075Z,10.70
2022-11-03T19:11:28.875Z,10.70
2022-11-03T19:13:56.032Z,10.70
2022-11-03T19:16:24.139Z,10.60
2022-11-03T19:18:52.299Z,10.60
2022-11-03T19:21:26.045Z,10.60
2022-11-03T19:23:57.973Z,10.60
2022-11-03T19:26:29.794Z,10.60
2022-11-03T19:28:58.514Z,10.60
2022-11-03T19:31:31.603Z,10.60
2022-11-03T19:33:59.032Z,10.50
2022-11-03T19:36:29.027Z,10.50
2022-11-03T19:38:56.236Z,10.50
2022-11-03T19:41:42.128Z,10.50
2022-11-03T19:44:12.744Z,10.50
2022-11-03T19:46:40.396Z,10.40
2022-11-03T19:49:08.969Z,10.40
2022-11-03T19:51:37.181Z,10.50
2022-11-03T19:54:10.389Z,10.50
2022-11-03T19:56:37.998Z,10.40
2022-11-03T19:59:06.770Z,10.50
2022-11-03T20:01:33.893Z,10.50
2022-11-03T20:04:01.514Z,10.50
2022-11-03T20:06:28.390Z,10.40
2022-11-03T20:08:55.309Z,10.40
2022-11-03T20:11:22.271Z,10.40
2022-11-03T20:13:49.657Z,10.40
2022-11-03T20:16:17.505Z,10.40
2022-11-03T20:18:44.959Z,10.40
2022-11-03T20:21:14.468Z,10.40
2022-11-03T20:23:41.586Z,10.40
2022-11-03T20:26:14.588Z,10.40
2022-11-03T20:28:42.187Z,10.50
2022-11-03T20:31:10.022Z,10.40
2022-11-03T20:33:37.253Z,10.40
2022-11-03T20:36:04.413Z,10.40
2022-11-03T20:38:32.411Z,10.40
2022-11-03T20:41:02.485Z,10.40
2022-11-03T20:43:33.074Z,10.40
2022-11-03T20:46:00.154Z,10.40
2022-11-03T20:48:26.985Z,10.40
2022-11-03T20:50:54.373Z,10.40
2022-11-03T20:53:22.518Z,10.40
2022-11-03T20:55:49.745Z,10.40
2022-11-03T20:58:17.637Z,10.40
2022-11-03T21:00:45.487Z,10.40
2022-11-03T21:03:31.447Z,10.40
2022-11-03T21:06:03.713Z,10.40
2022-11-03T21:08:30.709Z,10.40
2022-11-03T21:11:18.172Z,10.40
2022-11-03T21:13:45.563Z,10.40
2022-11-03T21:16:31.531Z,10.40
2022-11-03T21:19:17.333Z,10.40
2022-11-03T21:21:44.395Z,10.30
2022-11-03T21:24:14.095Z,10.30
2022-11-03T21:26:41.928Z,10.30
2022-11-03T21:29:09.297Z,10.30
2022-11-03T21:31:36.914Z,10.40
2022-11-03T21:34:03.989Z,10.40
2022-11-03T21:36:30.986Z,10.30
2022-11-03T21:38:58.081Z,10.30
2022-11-03T21:41:43.758Z,10.40
2022-11-03T21:44:16.870Z,10.40
2022-11-03T21:46:44.156Z,10.40
2022-11-03T21:49:29.822Z,10.40
2022-11-03T21:51:56.937Z,10.30
2022-11-03T21:54:23.941Z,10.40
2022-11-03T21:56:50.592Z,10.30
2022-11-03T21:59:17.650Z,10.30
2022-11-03T22:01:44.801Z,10.30
2022-11-03T22:04:12.415Z,10.30
2022-11-03T22:06:39.092Z,10.30
2022-11-03T22:09:06.738Z,10.30
2022-11-03T22:11:33.405Z,10.20
2022-11-03T22:14:00.780Z,10.20
2022-11-03T22:16:37.762Z,10.20
2022-11-03T22:19:23.496Z,10.10
2022-11-03T22:22:08.596Z,10.10
2022-11-03T22:24:54.733Z,10.00
2022-11-03T22:27:21.644Z,10.00
2022-11-03T22:30:07.505Z,9.90
2022-11-03T22:32:34.959Z,9.90
2022-11-03T22:35:21.499Z,9.80
2022-11-03T22:38:00.562Z,9.80
2022-11-03T22:40:46.172Z,9.80
2022-11-03T22:43:31.731Z,9.80
2022-11-03T22:45:59.156Z,9.80
2022-11-03T22:48:25.967Z,9.70
2022-11-03T22:50:57.238Z,9.70
2022-11-03T22:53:42.846Z,9.80
2022-11-03T22:56:09.640Z,9.80
2022-11-03T22:58:36.722Z,9.80
2022-11-03T23:01:05.903Z,9.80
2022-11-03T23:03:33.995Z,9.80
2022-11-03T23:06:02.782Z,9.80
2022-11-03T23:08:32.490Z,9.80
2022-11-03T23:11:05.407Z,9.80
2022-11-03T23:13:32.683Z,9.80
2022-11-03T23:15:59.788Z,9.80
2022-11-03T23:18:45.901Z,9.70
2022-11-03T23:21:13.240Z,9.70
2022-11-03T23:23:59.280Z,9.60
2022-11-03T23:26:26.930Z,9.60
2022-11-03T23:28:53.642Z,9.60
2022-11-03T23:31:20.499Z,9.50
2022-11-03T23:33:47.614Z,9.50
2022-11-03T23:36:15.500Z,9.50
2022-11-03T23:38:42.661Z,9.50
2022-11-03T23:41:11.444Z,9.50
2022-11-03T23:43:39.010Z,9.50
2022-11-03T23:46:25.206Z,9.50
2022-11-03T23:48:52.572Z,9.50
2022-11-03T23:51:20.861Z,9.50
2022-11-03T23:53:48.508Z,9.50
2022-11-03T23:56:40.063Z,9.50
2022-11-03T23:59:07.490Z,9.50
